sensor_id;sensor_type;location;lat;lon;timestamp;P1;durP1;ratioP1;P2;durP2;ratioP2
12810;SDS011;6470;47.654;7.896;2023-04-26T00:00:47;0.10;;;0.10;;
12810;SDS011;6470;47.654;7.896;2023-04-26T00:03:13;0.10;;;0.10;;
12810;SDS011;6470;47.654;7.896;2023-04-26T00:05:39;0.20;;;0.20;;
12810;SDS011;6470;47.654;7.896;2023-04-26T00:08:05;0.10;;;0.10;;
12810;SDS011;6470;47.654;7.896;2023-04-26T00:10:31;0.10;;;0.10;;
12810;SDS011;6470;47.654;7.896;2023-04-26T00:12:57;0.10;;;0.10;;
12810;SDS011;6470;47.654;7.896;2023-04-26T00:15:22;0.10;;;0.10;;
12810;SDS011;6470;47.654;7.896;2023-04-26T00:17:48;0.20;;;0.20;;
12810;SDS011;6470;47.654;7.896;2023-04-26T00:20:14;0.30;;;0.30;;
12810;SDS011;6470;47.654;7.896;2023-04-26T00:22:40;0.10;;;0.10;;
12810;SDS011;6470;47.654;7.896;2023-04-26T00:25:06;0.17;;;0.17;;
12810;SDS011;6470;47.654;7.896;2023-04-26T00:27:33;0.10;;;0.10;;
12810;SDS011;6470;47.654;7.896;2023-04-26T00:29:58;0.10;;;0.10;;
12810;SDS011;6470;47.654;7.896;2023-04-26T00:32:24;0.10;;;0.10;;
12810;SDS011;6470;47.654;7.896;2023-04-26T00:34:50;0.20;;;0.20;;
12810;SDS011;6470;47.654;7.896;2023-04-26T00:37:15;0.20;;;0.20;;
12810;SDS011;6470;47.654;7.896;2023-04-26T00:39:41;0.10;;;0.10;;
12810;SDS011;6470;47.654;7.896;2023-04-26T00:42:07;0.10;;;0.10;;
12810;SDS011;6470;47.654;7.896;2023-04-26T00:44:32;0.10;;;0.10;;
12810;SDS011;6470;47.654;7.896;2023-04-26T00:46:58;0.20;;;0.20;;
12810;SDS011;6470;47.654;7.896;2023-04-26T00:49:25;0.20;;;0.20;;
12810;SDS011;6470;47.654;7.896;2023-04-26T00:51:51;0.20;;;0.20;;
12810;SDS011;6470;47.654;7.896;2023-04-26T00:54:17;0.20;;;0.20;;
12810;SDS011;6470;47.654;7.896;2023-04-26T00:56:45;0.20;;;0.20;;
12810;SDS011;6470;47.654;7.896;2023-04-26T00:59:11;0.10;;;0.10;;
12810;SDS011;6470;47.654;7.896;2023-04-26T01:01:37;0.20;;;0.20;;
12810;SDS011;6470;47.654;7.896;2023-04-26T01:04:04;0.00;;;0.00;;
12810;SDS011;6470;47.654;7.896;2023-04-26T01:06:32;0.10;;;0.10;;
12810;SDS011;6470;47.654;7.896;2023-04-26T01:08:59;0.10;;;0.10;;
12810;SDS011;6470;47.654;7.896;2023-04-26T01:11:28;0.10;;;0.10;;
12810;SDS011;6470;47.654;7.896;2023-04-26T01:13:54;0.10;;;0.10;;
12810;SDS011;6470;47.654;7.896;2023-04-26T01:16:20;0.20;;;0.20;;
12810;SDS011;6470;47.654;7.896;2023-04-26T01:18:51;0.20;;;0.20;;
12810;SDS011;6470;47.654;7.896;2023-04-26T01:21:20;0.20;;;0.20;;
12810;SDS011;6470;47.654;7.896;2023-04-26T01:23:47;0.10;;;0.10;;
12810;SDS011;6470;47.654;7.896;2023-04-26T01:26:13;0.10;;;0.10;;
12810;SDS011;6470;47.654;7.896;2023-04-26T01:28:40;0.10;;;0.10;;
12810;SDS011;6470;47.654;7.896;2023-04-26T01:31:06;0.20;;;0.20;;
12810;SDS011;6470;47.654;7.896;2023-04-26T01:33:32;0.15;;;0.15;;
12810;SDS011;6470;47.654;7.896;2023-04-26T01:35:57;0.20;;;0.20;;
12810;SDS011;6470;47.654;7.896;2023-04-26T01:38:23;0.10;;;0.10;;
12810;SDS011;6470;47.654;7.896;2023-04-26T01:40:49;0.20;;;0.20;;
12810;SDS011;6470;47.654;7.896;2023-04-26T01:43:15;0.22;;;0.22;;
12810;SDS011;6470;47.654;7.896;2023-04-26T01:45:46;0.20;;;0.20;;
12810;SDS011;6470;47.654;7.896;2023-04-26T01:48:12;0.20;;;0.20;;
12810;SDS011;6470;47.654;7.896;2023-04-26T01:50:38;0.10;;;0.10;;
12810;SDS011;6470;47.654;7.896;2023-04-26T01:53:04;0.20;;;0.20;;
12810;SDS011;6470;47.654;7.896;2023-04-26T01:55:29;0.20;;;0.20;;
12810;SDS011;6470;47.654;7.896;2023-04-26T01:57:55;0.30;;;0.30;;
12810;SDS011;6470;47.654;7.896;2023-04-26T02:00:21;0.20;;;0.20;;
12810;SDS011;6470;47.654;7.896;2023-04-26T02:02:47;0.10;;;0.10;;
12810;SDS011;6470;47.654;7.896;2023-04-26T02:05:13;0.20;;;0.20;;
12810;SDS011;6470;47.654;7.896;2023-04-26T02:07:38;0.10;;;0.10;;
12810;SDS011;6470;47.654;7.896;2023-04-26T02:10:04;0.20;;;0.20;;
12810;SDS011;6470;47.654;7.896;2023-04-26T02:12:30;0.20;;;0.20;;
12810;SDS011;6470;47.654;7.896;2023-04-26T02:14:56;0.20;;;0.20;;
12810;SDS011;6470;47.654;7.896;2023-04-26T02:17:24;0.20;;;0.20;;
12810;SDS011;6470;47.654;7.896;2023-04-26T02:19:51;0.10;;;0.10;;
12810;SDS011;6470;47.654;7.896;2023-04-26T02:22:16;0.22;;;0.22;;
12810;SDS011;6470;47.654;7.896;2023-04-26T02:24:42;0.10;;;0.10;;
12810;SDS011;6470;47.654;7.896;2023-04-26T02:27:08;0.20;;;0.20;;
12810;SDS011;6470;47.654;7.896;2023-04-26T02:29:33;0.10;;;0.10;;
12810;SDS011;6470;47.654;7.896;2023-04-26T02:32:01;0.13;;;0.13;;
12810;SDS011;6470;47.654;7.896;2023-04-26T02:34:27;0.10;;;0.10;;
12810;SDS011;6470;47.654;7.896;2023-04-26T02:36:53;0.20;;;0.20;;
12810;SDS011;6470;47.654;7.896;2023-04-26T02:39:19;0.10;;;0.10;;
12810;SDS011;6470;47.654;7.896;2023-04-26T02:41:45;0.10;;;0.10;;
12810;SDS011;6470;47.654;7.896;2023-04-26T02:44:10;0.10;;;0.10;;
12810;SDS011;6470;47.654;7.896;2023-04-26T02:46:36;0.10;;;0.10;;
12810;SDS011;6470;47.654;7.896;2023-04-26T02:49:02;0.10;;;0.10;;
12810;SDS011;6470;47.654;7.896;2023-04-26T02:51:28;0.25;;;0.25;;
12810;SDS011;6470;47.654;7.896;2023-04-26T02:53:53;0.00;;;0.00;;
12810;SDS011;6470;47.654;7.896;2023-04-26T02:56:20;0.10;;;0.10;;
12810;SDS011;6470;47.654;7.896;2023-04-26T02:58:45;0.20;;;0.20;;
12810;SDS011;6470;47.654;7.896;2023-04-26T03:01:11;0.28;;;0.28;;
12810;SDS011;6470;47.654;7.896;2023-04-26T03:03:38;0.10;;;0.10;;
12810;SDS011;6470;47.654;7.896;2023-04-26T03:06:04;0.20;;;0.20;;
12810;SDS011;6470;47.654;7.896;2023-04-26T03:08:30;0.10;;;0.10;;
12810;SDS011;6470;47.654;7.896;2023-04-26T03:10:58;0.20;;;0.20;;
12810;SDS011;6470;47.654;7.896;2023-04-26T03:13:25;0.10;;;0.10;;
12810;SDS011;6470;47.654;7.896;2023-04-26T03:15:51;0.20;;;0.20;;
12810;SDS011;6470;47.654;7.896;2023-04-26T03:18:17;0.20;;;0.20;;
12810;SDS011;6470;47.654;7.896;2023-04-26T03:20:44;0.20;;;0.20;;
12810;SDS011;6470;47.654;7.896;2023-04-26T03:23:10;0.10;;;0.10;;
12810;SDS011;6470;47.654;7.896;2023-04-26T03:25:36;0.10;;;0.10;;
12810;SDS011;6470;47.654;7.896;2023-04-26T03:28:01;0.10;;;0.10;;
12810;SDS011;6470;47.654;7.896;2023-04-26T03:30:28;0.10;;;0.10;;
12810;SDS011;6470;47.654;7.896;2023-04-26T03:32:53;0.20;;;0.20;;
12810;SDS011;6470;47.654;7.896;2023-04-26T03:35:19;0.10;;;0.10;;
12810;SDS011;6470;47.654;7.896;2023-04-26T03:37:45;0.20;;;0.20;;
12810;SDS011;6470;47.654;7.896;2023-04-26T03:40:11;0.00;;;0.00;;
12810;SDS011;6470;47.654;7.896;2023-04-26T03:42:37;0.10;;;0.10;;
12810;SDS011;6470;47.654;7.896;2023-04-26T03:45:03;0.10;;;0.10;;
12810;SDS011;6470;47.654;7.896;2023-04-26T03:47:29;0.20;;;0.20;;
12810;SDS011;6470;47.654;7.896;2023-04-26T03:49:56;0.20;;;0.20;;
12810;SDS011;6470;47.654;7.896;2023-04-26T03:52:22;0.10;;;0.10;;
12810;SDS011;6470;47.654;7.896;2023-04-26T03:54:48;0.20;;;0.20;;
12810;SDS011;6470;47.654;7.896;2023-04-26T03:57:13;0.10;;;0.10;;
12810;SDS011;6470;47.654;7.896;2023-04-26T03:59:39;0.20;;;0.20;;
12810;SDS011;6470;47.654;7.896;2023-04-26T04:02:05;0.20;;;0.20;;
12810;SDS011;6470;47.654;7.896;2023-04-26T04:04:31;0.10;;;0.10;;
12810;SDS011;6470;47.654;7.896;2023-04-26T04:06:57;0.20;;;0.20;;
12810;SDS011;6470;47.654;7.896;2023-04-26T04:09:23;0.10;;;0.10;;
12810;SDS011;6470;47.654;7.896;2023-04-26T04:11:50;0.20;;;0.20;;
12810;SDS011;6470;47.654;7.896;2023-04-26T04:14:15;0.10;;;0.10;;
12810;SDS011;6470;47.654;7.896;2023-04-26T04:16:41;0.00;;;0.00;;
12810;SDS011;6470;47.654;7.896;2023-04-26T04:19:07;0.10;;;0.10;;
12810;SDS011;6470;47.654;7.896;2023-04-26T04:21:33;0.10;;;0.10;;
12810;SDS011;6470;47.654;7.896;2023-04-26T04:23:59;0.10;;;0.10;;
12810;SDS011;6470;47.654;7.896;2023-04-26T04:26:25;0.10;;;0.10;;
12810;SDS011;6470;47.654;7.896;2023-04-26T04:28:52;0.10;;;0.10;;
12810;SDS011;6470;47.654;7.896;2023-04-26T04:31:19;0.20;;;0.20;;
12810;SDS011;6470;47.654;7.896;2023-04-26T04:33:45;0.10;;;0.10;;
12810;SDS011;6470;47.654;7.896;2023-04-26T04:36:11;0.10;;;0.10;;
12810;SDS011;6470;47.654;7.896;2023-04-26T04:38:37;0.28;;;0.28;;
12810;SDS011;6470;47.654;7.896;2023-04-26T04:41:02;0.10;;;0.10;;
12810;SDS011;6470;47.654;7.896;2023-04-26T04:43:29;0.10;;;0.10;;
12810;SDS011;6470;47.654;7.896;2023-04-26T04:45:54;0.10;;;0.10;;
12810;SDS011;6470;47.654;7.896;2023-04-26T04:48:20;0.13;;;0.13;;
12810;SDS011;6470;47.654;7.896;2023-04-26T04:50:46;0.20;;;0.20;;
12810;SDS011;6470;47.654;7.896;2023-04-26T04:53:13;0.10;;;0.10;;
12810;SDS011;6470;47.654;7.896;2023-04-26T04:55:38;0.10;;;0.10;;
12810;SDS011;6470;47.654;7.896;2023-04-26T04:58:05;0.20;;;0.20;;
12810;SDS011;6470;47.654;7.896;2023-04-26T05:00:31;0.22;;;0.22;;
12810;SDS011;6470;47.654;7.896;2023-04-26T05:02:56;0.20;;;0.20;;
12810;SDS011;6470;47.654;7.896;2023-04-26T05:05:22;0.10;;;0.10;;
12810;SDS011;6470;47.654;7.896;2023-04-26T05:07:48;0.10;;;0.10;;
12810;SDS011;6470;47.654;7.896;2023-04-26T05:10:14;0.20;;;0.20;;
12810;SDS011;6470;47.654;7.896;2023-04-26T05:12:40;0.13;;;0.13;;
12810;SDS011;6470;47.654;7.896;2023-04-26T05:15:06;0.10;;;0.10;;
12810;SDS011;6470;47.654;7.896;2023-04-26T05:17:32;0.10;;;0.10;;
12810;SDS011;6470;47.654;7.896;2023-04-26T05:19:58;0.20;;;0.20;;
12810;SDS011;6470;47.654;7.896;2023-04-26T05:22:23;0.10;;;0.10;;
12810;SDS011;6470;47.654;7.896;2023-04-26T05:24:49;0.10;;;0.10;;
12810;SDS011;6470;47.654;7.896;2023-04-26T05:27:16;0.10;;;0.10;;
12810;SDS011;6470;47.654;7.896;2023-04-26T05:29:41;0.20;;;0.20;;
12810;SDS011;6470;47.654;7.896;2023-04-26T05:32:07;0.10;;;0.10;;
12810;SDS011;6470;47.654;7.896;2023-04-26T05:34:33;0.10;;;0.10;;
12810;SDS011;6470;47.654;7.896;2023-04-26T05:37:00;0.10;;;0.10;;
12810;SDS011;6470;47.654;7.896;2023-04-26T05:39:26;0.10;;;0.10;;
12810;SDS011;6470;47.654;7.896;2023-04-26T05:41:51;0.20;;;0.20;;
12810;SDS011;6470;47.654;7.896;2023-04-26T05:44:17;0.30;;;0.30;;
12810;SDS011;6470;47.654;7.896;2023-04-26T05:46:43;0.20;;;0.20;;
12810;SDS011;6470;47.654;7.896;2023-04-26T05:49:10;0.20;;;0.20;;
12810;SDS011;6470;47.654;7.896;2023-04-26T05:51:35;0.20;;;0.20;;
12810;SDS011;6470;47.654;7.896;2023-04-26T05:54:01;0.20;;;0.20;;
12810;SDS011;6470;47.654;7.896;2023-04-26T05:56:27;0.20;;;0.20;;
12810;SDS011;6470;47.654;7.896;2023-04-26T05:58:53;0.20;;;0.20;;
12810;SDS011;6470;47.654;7.896;2023-04-26T06:01:19;0.10;;;0.10;;
12810;SDS011;6470;47.654;7.896;2023-04-26T06:03:45;0.10;;;0.10;;
12810;SDS011;6470;47.654;7.896;2023-04-26T06:06:10;0.20;;;0.20;;
12810;SDS011;6470;47.654;7.896;2023-04-26T06:08:36;0.10;;;0.10;;
12810;SDS011;6470;47.654;7.896;2023-04-26T06:11:02;0.20;;;0.20;;
12810;SDS011;6470;47.654;7.896;2023-04-26T06:13:29;0.10;;;0.10;;
12810;SDS011;6470;47.654;7.896;2023-04-26T06:15:55;0.20;;;0.20;;
12810;SDS011;6470;47.654;7.896;2023-04-26T06:18:20;0.10;;;0.10;;
12810;SDS011;6470;47.654;7.896;2023-04-26T06:20:46;0.10;;;0.10;;
12810;SDS011;6470;47.654;7.896;2023-04-26T06:23:12;0.10;;;0.10;;
12810;SDS011;6470;47.654;7.896;2023-04-26T06:25:38;0.10;;;0.10;;
12810;SDS011;6470;47.654;7.896;2023-04-26T06:28:09;0.10;;;0.10;;
12810;SDS011;6470;47.654;7.896;2023-04-26T06:30:38;0.10;;;0.10;;
12810;SDS011;6470;47.654;7.896;2023-04-26T06:33:04;0.10;;;0.10;;
12810;SDS011;6470;47.654;7.896;2023-04-26T06:35:29;0.10;;;0.10;;
12810;SDS011;6470;47.654;7.896;2023-04-26T06:37:55;0.10;;;0.10;;
12810;SDS011;6470;47.654;7.896;2023-04-26T06:40:21;0.10;;;0.10;;
12810;SDS011;6470;47.654;7.896;2023-04-26T06:42:47;0.10;;;0.10;;
12810;SDS011;6470;47.654;7.896;2023-04-26T06:45:13;0.10;;;0.10;;
12810;SDS011;6470;47.654;7.896;2023-04-26T06:47:39;0.10;;;0.10;;
12810;SDS011;6470;47.654;7.896;2023-04-26T06:50:05;0.10;;;0.10;;
12810;SDS011;6470;47.654;7.896;2023-04-26T06:52:31;0.10;;;0.10;;
12810;SDS011;6470;47.654;7.896;2023-04-26T06:55:01;0.10;;;0.10;;
12810;SDS011;6470;47.654;7.896;2023-04-26T06:57:27;0.10;;;0.10;;
12810;SDS011;6470;47.654;7.896;2023-04-26T06:59:53;0.10;;;0.10;;
12810;SDS011;6470;47.654;7.896;2023-04-26T07:02:19;0.10;;;0.10;;
12810;SDS011;6470;47.654;7.896;2023-04-26T07:04:46;0.10;;;0.10;;
12810;SDS011;6470;47.654;7.896;2023-04-26T07:07:12;0.15;;;0.15;;
12810;SDS011;6470;47.654;7.896;2023-04-26T07:09:39;0.10;;;0.10;;
12810;SDS011;6470;47.654;7.896;2023-04-26T07:12:05;0.10;;;0.10;;
12810;SDS011;6470;47.654;7.896;2023-04-26T07:14:31;0.10;;;0.10;;
12810;SDS011;6470;47.654;7.896;2023-04-26T07:16:57;0.10;;;0.10;;
12810;SDS011;6470;47.654;7.896;2023-04-26T07:19:23;0.10;;;0.10;;
12810;SDS011;6470;47.654;7.896;2023-04-26T07:21:49;0.10;;;0.10;;
12810;SDS011;6470;47.654;7.896;2023-04-26T07:24:15;0.20;;;0.20;;
12810;SDS011;6470;47.654;7.896;2023-04-26T07:26:41;0.10;;;0.10;;
12810;SDS011;6470;47.654;7.896;2023-04-26T07:29:07;0.00;;;0.00;;
12810;SDS011;6470;47.654;7.896;2023-04-26T07:31:33;0.10;;;0.10;;
12810;SDS011;6470;47.654;7.896;2023-04-26T07:33:59;0.10;;;0.10;;
12810;SDS011;6470;47.654;7.896;2023-04-26T07:36:25;0.20;;;0.20;;
12810;SDS011;6470;47.654;7.896;2023-04-26T07:38:51;0.10;;;0.10;;
12810;SDS011;6470;47.654;7.896;2023-04-26T07:41:17;0.10;;;0.10;;
12810;SDS011;6470;47.654;7.896;2023-04-26T07:43:43;0.10;;;0.10;;
12810;SDS011;6470;47.654;7.896;2023-04-26T07:46:09;0.10;;;0.10;;
12810;SDS011;6470;47.654;7.896;2023-04-26T07:48:34;0.10;;;0.10;;
12810;SDS011;6470;47.654;7.896;2023-04-26T07:51:07;0.00;;;0.00;;
12810;SDS011;6470;47.654;7.896;2023-04-26T07:53:34;0.10;;;0.10;;
12810;SDS011;6470;47.654;7.896;2023-04-26T07:56:02;0.05;;;0.05;;
12810;SDS011;6470;47.654;7.896;2023-04-26T07:58:30;0.10;;;0.10;;
12810;SDS011;6470;47.654;7.896;2023-04-26T08:00:57;0.00;;;0.00;;
12810;SDS011;6470;47.654;7.896;2023-04-26T08:03:23;0.03;;;0.03;;
12810;SDS011;6470;47.654;7.896;2023-04-26T08:05:49;0.10;;;0.10;;
12810;SDS011;6470;47.654;7.896;2023-04-26T08:08:15;0.00;;;0.00;;
12810;SDS011;6470;47.654;7.896;2023-04-26T08:10:40;0.10;;;0.10;;
12810;SDS011;6470;47.654;7.896;2023-04-26T08:13:06;0.10;;;0.10;;
12810;SDS011;6470;47.654;7.896;2023-04-26T08:15:32;0.10;;;0.10;;
12810;SDS011;6470;47.654;7.896;2023-04-26T08:17:58;0.03;;;0.03;;
12810;SDS011;6470;47.654;7.896;2023-04-26T08:20:24;0.00;;;0.00;;
12810;SDS011;6470;47.654;7.896;2023-04-26T08:22:54;0.00;;;0.00;;
12810;SDS011;6470;47.654;7.896;2023-04-26T08:25:21;0.00;;;0.00;;
12810;SDS011;6470;47.654;7.896;2023-04-26T08:27:47;0.00;;;0.00;;
12810;SDS011;6470;47.654;7.896;2023-04-26T08:30:13;0.00;;;0.00;;
12810;SDS011;6470;47.654;7.896;2023-04-26T08:32:39;0.10;;;0.10;;
12810;SDS011;6470;47.654;7.896;2023-04-26T08:35:05;0.05;;;0.05;;
12810;SDS011;6470;47.654;7.896;2023-04-26T08:37:31;0.00;;;0.00;;
12810;SDS011;6470;47.654;7.896;2023-04-26T08:39:56;0.00;;;0.00;;
12810;SDS011;6470;47.654;7.896;2023-04-26T08:42:26;0.00;;;0.00;;
12810;SDS011;6470;47.654;7.896;2023-04-26T08:44:52;0.10;;;0.10;;
12810;SDS011;6470;47.654;7.896;2023-04-26T08:47:24;0.00;;;0.00;;
12810;SDS011;6470;47.654;7.896;2023-04-26T08:49:58;0.00;;;0.00;;
12810;SDS011;6470;47.654;7.896;2023-04-26T08:52:28;0.08;;;0.08;;
12810;SDS011;6470;47.654;7.896;2023-04-26T08:54:55;0.00;;;0.00;;
12810;SDS011;6470;47.654;7.896;2023-04-26T08:57:23;0.00;;;0.00;;
12810;SDS011;6470;47.654;7.896;2023-04-26T08:59:49;0.08;;;0.08;;
12810;SDS011;6470;47.654;7.896;2023-04-26T09:02:17;0.00;;;0.00;;
12810;SDS011;6470;47.654;7.896;2023-04-26T09:04:47;0.00;;;0.00;;
12810;SDS011;6470;47.654;7.896;2023-04-26T09:07:20;0.00;;;0.00;;
12810;SDS011;6470;47.654;7.896;2023-04-26T09:09:57;0.10;;;0.10;;
12810;SDS011;6470;47.654;7.896;2023-04-26T09:12:23;0.00;;;0.00;;
12810;SDS011;6470;47.654;7.896;2023-04-26T09:14:50;0.00;;;0.00;;
12810;SDS011;6470;47.654;7.896;2023-04-26T09:19:53;0.00;;;0.00;;
12810;SDS011;6470;47.654;7.896;2023-04-26T09:24:55;0.00;;;0.00;;
12810;SDS011;6470;47.654;7.896;2023-04-26T09:27:21;0.00;;;0.00;;
12810;SDS011;6470;47.654;7.896;2023-04-26T09:30:07;0.00;;;0.00;;
12810;SDS011;6470;47.654;7.896;2023-04-26T09:32:42;0.00;;;0.00;;
12810;SDS011;6470;47.654;7.896;2023-04-26T09:35:29;0.10;;;0.10;;
12810;SDS011;6470;47.654;7.896;2023-04-26T09:38:11;0.10;;;0.10;;
12810;SDS011;6470;47.654;7.896;2023-04-26T09:40:42;0.00;;;0.00;;
12810;SDS011;6470;47.654;7.896;2023-04-26T09:43:13;0.00;;;0.00;;
12810;SDS011;6470;47.654;7.896;2023-04-26T09:50:46;0.00;;;0.00;;
12810;SDS011;6470;47.654;7.896;2023-04-26T09:53:23;0.10;;;0.10;;
12810;SDS011;6470;47.654;7.896;2023-04-26T09:56:10;0.00;;;0.00;;
12810;SDS011;6470;47.654;7.896;2023-04-26T09:58:38;0.00;;;0.00;;
12810;SDS011;6470;47.654;7.896;2023-04-26T10:01:29;0.00;;;0.00;;
12810;SDS011;6470;47.654;7.896;2023-04-26T10:03:59;0.00;;;0.00;;
12810;SDS011;6470;47.654;7.896;2023-04-26T10:06:26;0.00;;;0.00;;
12810;SDS011;6470;47.654;7.896;2023-04-26T10:08:52;0.00;;;0.00;;
12810;SDS011;6470;47.654;7.896;2023-04-26T10:11:19;0.00;;;0.00;;
12810;SDS011;6470;47.654;7.896;2023-04-26T10:13:45;0.10;;;0.10;;
12810;SDS011;6470;47.654;7.896;2023-04-26T10:16:14;0.00;;;0.00;;
12810;SDS011;6470;47.654;7.896;2023-04-26T10:18:41;0.00;;;0.00;;
12810;SDS011;6470;47.654;7.896;2023-04-26T10:21:20;0.00;;;0.00;;
12810;SDS011;6470;47.654;7.896;2023-04-26T10:23:52;0.00;;;0.00;;
12810;SDS011;6470;47.654;7.896;2023-04-26T10:29:22;0.00;;;0.00;;
12810;SDS011;6470;47.654;7.896;2023-04-26T10:34:31;0.00;;;0.00;;
12810;SDS011;6470;47.654;7.896;2023-04-26T10:39:43;0.00;;;0.00;;
12810;SDS011;6470;47.654;7.896;2023-04-26T10:44:47;0.00;;;0.00;;
12810;SDS011;6470;47.654;7.896;2023-04-26T10:50:00;0.00;;;0.00;;
12810;SDS011;6470;47.654;7.896;2023-04-26T10:52:34;0.00;;;0.00;;
12810;SDS011;6470;47.654;7.896;2023-04-26T10:55:01;0.00;;;0.00;;
12810;SDS011;6470;47.654;7.896;2023-04-26T10:57:46;0.00;;;0.00;;
12810;SDS011;6470;47.654;7.896;2023-04-26T11:00:18;0.00;;;0.00;;
12810;SDS011;6470;47.654;7.896;2023-04-26T11:02:53;0.00;;;0.00;;
12810;SDS011;6470;47.654;7.896;2023-04-26T11:10:44;0.00;;;0.00;;
12810;SDS011;6470;47.654;7.896;2023-04-26T11:13:15;0.00;;;0.00;;
12810;SDS011;6470;47.654;7.896;2023-04-26T11:15:42;0.00;;;0.00;;
12810;SDS011;6470;47.654;7.896;2023-04-26T11:18:08;0.00;;;0.00;;
12810;SDS011;6470;47.654;7.896;2023-04-26T11:20:33;0.00;;;0.00;;
12810;SDS011;6470;47.654;7.896;2023-04-26T11:22:59;0.00;;;0.00;;
12810;SDS011;6470;47.654;7.896;2023-04-26T11:25:28;0.00;;;0.00;;
12810;SDS011;6470;47.654;7.896;2023-04-26T11:28:00;0.00;;;0.00;;
12810;SDS011;6470;47.654;7.896;2023-04-26T11:30:27;0.00;;;0.00;;
12810;SDS011;6470;47.654;7.896;2023-04-26T11:32:53;0.00;;;0.00;;
12810;SDS011;6470;47.654;7.896;2023-04-26T11:35:20;0.00;;;0.00;;
12810;SDS011;6470;47.654;7.896;2023-04-26T11:37:47;0.00;;;0.00;;
12810;SDS011;6470;47.654;7.896;2023-04-26T11:40:15;0.00;;;0.00;;
12810;SDS011;6470;47.654;7.896;2023-04-26T11:42:44;0.10;;;0.10;;
12810;SDS011;6470;47.654;7.896;2023-04-26T11:45:10;0.10;;;0.10;;
12810;SDS011;6470;47.654;7.896;2023-04-26T11:47:39;0.10;;;0.10;;
12810;SDS011;6470;47.654;7.896;2023-04-26T11:50:05;0.10;;;0.10;;
12810;SDS011;6470;47.654;7.896;2023-04-26T11:52:32;0.00;;;0.00;;
12810;SDS011;6470;47.654;7.896;2023-04-26T11:55:05;0.00;;;0.00;;
12810;SDS011;6470;47.654;7.896;2023-04-26T11:57:32;0.10;;;0.10;;
12810;SDS011;6470;47.654;7.896;2023-04-26T12:00:11;0.00;;;0.00;;
12810;SDS011;6470;47.654;7.896;2023-04-26T12:02:39;0.00;;;0.00;;
12810;SDS011;6470;47.654;7.896;2023-04-26T12:05:08;0.00;;;0.00;;
12810;SDS011;6470;47.654;7.896;2023-04-26T12:07:35;0.00;;;0.00;;
12810;SDS011;6470;47.654;7.896;2023-04-26T12:10:17;0.00;;;0.00;;
12810;SDS011;6470;47.654;7.896;2023-04-26T12:12:51;0.00;;;0.00;;
12810;SDS011;6470;47.654;7.896;2023-04-26T12:15:33;0.10;;;0.10;;
12810;SDS011;6470;47.654;7.896;2023-04-26T12:18:00;0.00;;;0.00;;
12810;SDS011;6470;47.654;7.896;2023-04-26T12:20:35;0.00;;;0.00;;
12810;SDS011;6470;47.654;7.896;2023-04-26T12:23:02;0.10;;;0.10;;
12810;SDS011;6470;47.654;7.896;2023-04-26T12:25:30;0.10;;;0.10;;
12810;SDS011;6470;47.654;7.896;2023-04-26T12:27:57;0.00;;;0.00;;
12810;SDS011;6470;47.654;7.896;2023-04-26T12:30:23;0.00;;;0.00;;
12810;SDS011;6470;47.654;7.896;2023-04-26T12:32:50;0.00;;;0.00;;
12810;SDS011;6470;47.654;7.896;2023-04-26T12:35:16;0.00;;;0.00;;
12810;SDS011;6470;47.654;7.896;2023-04-26T12:37:42;0.00;;;0.00;;
12810;SDS011;6470;47.654;7.896;2023-04-26T12:40:08;0.10;;;0.10;;
12810;SDS011;6470;47.654;7.896;2023-04-26T12:42:34;0.00;;;0.00;;
12810;SDS011;6470;47.654;7.896;2023-04-26T12:45:00;0.00;;;0.00;;
12810;SDS011;6470;47.654;7.896;2023-04-26T12:47:26;0.00;;;0.00;;
12810;SDS011;6470;47.654;7.896;2023-04-26T12:49:52;0.00;;;0.00;;
12810;SDS011;6470;47.654;7.896;2023-04-26T12:52:17;0.00;;;0.00;;
12810;SDS011;6470;47.654;7.896;2023-04-26T12:54:43;0.00;;;0.00;;
12810;SDS011;6470;47.654;7.896;2023-04-26T12:57:11;0.00;;;0.00;;
12810;SDS011;6470;47.654;7.896;2023-04-26T12:59:38;0.00;;;0.00;;
12810;SDS011;6470;47.654;7.896;2023-04-26T13:02:03;0.00;;;0.00;;
12810;SDS011;6470;47.654;7.896;2023-04-26T13:04:29;0.00;;;0.00;;
12810;SDS011;6470;47.654;7.896;2023-04-26T13:06:55;0.00;;;0.00;;
12810;SDS011;6470;47.654;7.896;2023-04-26T13:09:21;0.00;;;0.00;;
12810;SDS011;6470;47.654;7.896;2023-04-26T13:11:46;0.00;;;0.00;;
12810;SDS011;6470;47.654;7.896;2023-04-26T13:14:12;0.10;;;0.10;;
12810;SDS011;6470;47.654;7.896;2023-04-26T13:16:38;0.00;;;0.00;;
12810;SDS011;6470;47.654;7.896;2023-04-26T13:19:08;0.00;;;0.00;;
12810;SDS011;6470;47.654;7.896;2023-04-26T13:21:34;0.00;;;0.00;;
12810;SDS011;6470;47.654;7.896;2023-04-26T13:24:00;0.00;;;0.00;;
12810;SDS011;6470;47.654;7.896;2023-04-26T13:26:26;0.10;;;0.10;;
12810;SDS011;6470;47.654;7.896;2023-04-26T13:28:52;0.00;;;0.00;;
12810;SDS011;6470;47.654;7.896;2023-04-26T13:31:18;0.00;;;0.00;;
12810;SDS011;6470;47.654;7.896;2023-04-26T13:33:44;0.00;;;0.00;;
12810;SDS011;6470;47.654;7.896;2023-04-26T13:36:13;0.10;;;0.10;;
12810;SDS011;6470;47.654;7.896;2023-04-26T13:38:40;0.00;;;0.00;;
12810;SDS011;6470;47.654;7.896;2023-04-26T13:41:06;0.00;;;0.00;;
12810;SDS011;6470;47.654;7.896;2023-04-26T13:43:32;0.00;;;0.00;;
12810;SDS011;6470;47.654;7.896;2023-04-26T13:45:58;0.00;;;0.00;;
12810;SDS011;6470;47.654;7.896;2023-04-26T13:48:24;0.00;;;0.00;;
12810;SDS011;6470;47.654;7.896;2023-04-26T13:50:49;0.00;;;0.00;;
12810;SDS011;6470;47.654;7.896;2023-04-26T13:53:15;0.00;;;0.00;;
12810;SDS011;6470;47.654;7.896;2023-04-26T13:55:41;0.00;;;0.00;;
12810;SDS011;6470;47.654;7.896;2023-04-26T13:58:06;0.00;;;0.00;;
12810;SDS011;6470;47.654;7.896;2023-04-26T14:00:33;0.00;;;0.00;;
12810;SDS011;6470;47.654;7.896;2023-04-26T14:02:58;0.00;;;0.00;;
12810;SDS011;6470;47.654;7.896;2023-04-26T14:05:24;0.10;;;0.10;;
12810;SDS011;6470;47.654;7.896;2023-04-26T14:07:50;0.00;;;0.00;;
12810;SDS011;6470;47.654;7.896;2023-04-26T14:10:15;0.10;;;0.10;;
12810;SDS011;6470;47.654;7.896;2023-04-26T14:12:41;0.10;;;0.10;;
12810;SDS011;6470;47.654;7.896;2023-04-26T14:15:07;0.00;;;0.00;;
12810;SDS011;6470;47.654;7.896;2023-04-26T14:17:33;0.00;;;0.00;;
12810;SDS011;6470;47.654;7.896;2023-04-26T14:19:59;0.00;;;0.00;;
12810;SDS011;6470;47.654;7.896;2023-04-26T14:22:25;0.00;;;0.00;;
12810;SDS011;6470;47.654;7.896;2023-04-26T14:24:51;0.00;;;0.00;;
12810;SDS011;6470;47.654;7.896;2023-04-26T14:27:17;0.00;;;0.00;;
12810;SDS011;6470;47.654;7.896;2023-04-26T14:29:43;0.00;;;0.00;;
12810;SDS011;6470;47.654;7.896;2023-04-26T14:32:09;0.00;;;0.00;;
12810;SDS011;6470;47.654;7.896;2023-04-26T14:34:35;0.00;;;0.00;;
12810;SDS011;6470;47.654;7.896;2023-04-26T14:37:03;0.00;;;0.00;;
12810;SDS011;6470;47.654;7.896;2023-04-26T14:39:29;0.00;;;0.00;;
12810;SDS011;6470;47.654;7.896;2023-04-26T14:41:55;0.00;;;0.00;;
12810;SDS011;6470;47.654;7.896;2023-04-26T14:44:22;0.00;;;0.00;;
12810;SDS011;6470;47.654;7.896;2023-04-26T14:46:48;0.00;;;0.00;;
12810;SDS011;6470;47.654;7.896;2023-04-26T14:49:14;0.00;;;0.00;;
12810;SDS011;6470;47.654;7.896;2023-04-26T14:51:40;0.00;;;0.00;;
12810;SDS011;6470;47.654;7.896;2023-04-26T14:54:05;0.10;;;0.10;;
12810;SDS011;6470;47.654;7.896;2023-04-26T14:56:32;0.00;;;0.00;;
12810;SDS011;6470;47.654;7.896;2023-04-26T14:58:58;0.00;;;0.00;;
12810;SDS011;6470;47.654;7.896;2023-04-26T15:01:25;0.00;;;0.00;;
12810;SDS011;6470;47.654;7.896;2023-04-26T15:03:51;0.00;;;0.00;;
12810;SDS011;6470;47.654;7.896;2023-04-26T15:06:17;0.00;;;0.00;;
12810;SDS011;6470;47.654;7.896;2023-04-26T15:08:43;0.00;;;0.00;;
12810;SDS011;6470;47.654;7.896;2023-04-26T15:11:09;0.00;;;0.00;;
12810;SDS011;6470;47.654;7.896;2023-04-26T15:13:35;0.00;;;0.00;;
12810;SDS011;6470;47.654;7.896;2023-04-26T15:16:01;0.10;;;0.10;;
12810;SDS011;6470;47.654;7.896;2023-04-26T15:18:28;0.00;;;0.00;;
12810;SDS011;6470;47.654;7.896;2023-04-26T15:20:54;0.00;;;0.00;;
12810;SDS011;6470;47.654;7.896;2023-04-26T15:23:20;0.00;;;0.00;;
12810;SDS011;6470;47.654;7.896;2023-04-26T15:25:46;0.10;;;0.10;;
12810;SDS011;6470;47.654;7.896;2023-04-26T15:28:11;0.00;;;0.00;;